createdAt,value
2022-08-25T00:00:22.578Z,101880.94
2022-08-25T00:02:55.144Z,101879.94
2022-08-25T00:05:27.751Z,101879.09
2022-08-25T00:07:58.073Z,101876.34
2022-08-25T00:10:26.516Z,101868.34
2022-08-25T00:12:54.935Z,101877.34
2022-08-25T00:15:23.961Z,101869.28
2022-08-25T00:17:52.664Z,101876.50
2022-08-25T00:20:22.904Z,101880.97
2022-08-25T00:22:51.810Z,101877.47
2022-08-25T00:25:20.371Z,101866.78
2022-08-25T00:27:49.829Z,101883.00
2022-08-25T00:30:18.585Z,101888.47
2022-08-25T00:32:55.164Z,101882.31
2022-08-25T00:35:26.420Z,101883.28
2022-08-25T00:37:55.546Z,101879.69
2022-08-25T00:40:26.278Z,101882.38
2022-08-25T00:42:56.087Z,101886.94
2022-08-25T00:45:25.432Z,101876.31
2022-08-25T00:47:53.976Z,101888.91
2022-08-25T00:50:26.761Z,101889.88
2022-08-25T00:52:59.103Z,101881.81
2022-08-25T00:55:39.803Z,101878.31
2022-08-25T00:58:14.600Z,101880.16
2022-08-25T01:00:50.982Z,101879.31
2022-08-25T01:03:20.573Z,101877.66
2022-08-25T01:05:56.989Z,101880.41
2022-08-25T01:08:28.949Z,101884.06
2022-08-25T01:11:03.033Z,101890.44
2022-08-25T01:13:45.275Z,101878.88
2022-08-25T01:16:16.330Z,101884.38
2022-08-25T01:18:56.462Z,101884.47
2022-08-25T01:21:25.636Z,101887.25
2022-08-25T01:23:58.300Z,101888.25
2022-08-25T01:26:32.806Z,101883.88
2022-08-25T01:29:22.766Z,101883.03
2022-08-25T01:32:03.827Z,101886.75
2022-08-25T01:34:36.613Z,101888.63
2022-08-25T01:37:05.792Z,101888.69
2022-08-25T01:39:36.824Z,101893.22
2022-08-25T01:42:11.672Z,101889.66
2022-08-25T01:44:43.705Z,101888.03
2022-08-25T01:47:13.825Z,101886.28
2022-08-25T01:49:42.411Z,101892.59
2022-08-25T01:52:16.927Z,101886.38
2022-08-25T01:54:45.478Z,101887.28
2022-08-25T01:57:13.870Z,101887.31
2022-08-25T01:59:42.543Z,101884.75
2022-08-25T02:02:11.012Z,101881.22
2022-08-25T02:04:44.375Z,101875.03
2022-08-25T02:07:13.225Z,101880.44
2022-08-25T02:09:41.617Z,101876.91
2022-08-25T02:12:09.980Z,101881.47
2022-08-25T02:14:38.552Z,101873.50
2022-08-25T02:17:07.076Z,101879.88
2022-08-25T02:19:38.003Z,101879.06
2022-08-25T02:22:06.506Z,101875.53
2022-08-25T02:24:35.120Z,101877.38
2022-08-25T02:27:05.240Z,101877.47
2022-08-25T02:29:33.929Z,101879.34
2022-08-25T02:32:03.227Z,101874.00
2022-08-25T02:34:31.874Z,101874.06
2022-08-25T02:37:00.254Z,101876.84
2022-08-25T02:39:28.571Z,101880.50
2022-08-25T02:41:57.287Z,101878.78
2022-08-25T02:44:25.715Z,101872.59
2022-08-25T02:46:54.209Z,101873.56
2022-08-25T02:49:22.513Z,101870.06
2022-08-25T02:51:50.943Z,101864.72
2022-08-25T02:54:19.204Z,101870.09
2022-08-25T02:56:48.622Z,101866.59
2022-08-25T02:59:18.173Z,101864.78
2022-08-25T03:01:46.899Z,101866.63
2022-08-25T03:04:15.235Z,101858.69
2022-08-25T03:06:44.233Z,101868.47
2022-08-25T03:09:13.702Z,101863.16
2022-08-25T03:11:42.024Z,101856.97
2022-08-25T03:14:11.086Z,101861.44
2022-08-25T03:16:40.518Z,101857.03
2022-08-25T03:19:11.363Z,101861.59
2022-08-25T03:21:40.140Z,101860.75
2022-08-25T03:24:08.626Z,101853.69
2022-08-25T03:26:55.933Z,101859.94
2022-08-25T03:29:31.224Z,101864.47
2022-08-25T03:32:00.915Z,101865.44
2022-08-25T03:34:30.700Z,101862.81
2022-08-25T03:36:59.789Z,101854.84
2022-08-25T03:39:29.148Z,101861.13
2022-08-25T03:41:59.407Z,101852.28
2022-08-25T03:44:27.790Z,101847.03
2022-08-25T03:46:56.121Z,101848.84
2022-08-25T03:49:24.703Z,101844.44
2022-08-25T03:51:54.912Z,101852.47
2022-08-25T03:54:25.806Z,101843.59
2022-08-25T03:56:54.985Z,101841.03
2022-08-25T03:59:23.597Z,101857.09
2022-08-25T04:01:55.164Z,101849.97
2022-08-25T04:04:24.427Z,101847.38
2022-08-25T04:06:53.148Z,101850.09
2022-08-25T04:09:22.077Z,101842.97
2022-08-25T04:11:53.206Z,101847.47
2022-08-25T04:14:23.599Z,101842.13
2022-08-25T04:16:53.178Z,101845.78
2022-08-25T04:19:22.106Z,101838.69
2022-08-25T04:21:51.821Z,101836.94
2022-08-25T04:24:25.210Z,101846.81
2022-08-25T04:26:53.741Z,101839.69
2022-08-25T04:29:24.585Z,101834.38
2022-08-25T04:31:54.678Z,101837.06
2022-08-25T04:34:30.601Z,101830.84
2022-08-25T04:37:02.549Z,101833.56
2022-08-25T04:39:31.405Z,101841.59
2022-08-25T04:42:02.900Z,101837.19
2022-08-25T04:44:32.049Z,101838.94
2022-08-25T04:47:02.014Z,101830.03
2022-08-25T04:49:32.736Z,101832.72
2022-08-25T04:52:01.145Z,101831.88
2022-08-25T04:54:29.527Z,101828.31
2022-08-25T04:57:05.786Z,101830.06
2022-08-25T04:59:34.247Z,101824.72
2022-08-25T05:02:03.403Z,101826.44
2022-08-25T05:04:34.858Z,101821.06
2022-08-25T05:07:04.363Z,101813.03
2022-08-25T05:09:33.076Z,101814.78
2022-08-25T05:12:02.777Z,101816.53
2022-08-25T05:14:32.559Z,101806.66
2022-08-25T05:17:01.117Z,101804.84
2022-08-25T05:19:29.966Z,101807.50
2022-08-25T05:21:59.113Z,101801.28
2022-08-25T05:24:28.317Z,101811.03
2022-08-25T05:26:57.377Z,101809.25
2022-08-25T05:29:26.193Z,101816.31
2022-08-25T05:31:54.678Z,101809.13
2022-08-25T05:34:23.201Z,101813.53
2022-08-25T05:36:51.683Z,101817.94
2022-08-25T05:39:20.355Z,101816.13
2022-08-25T05:41:48.743Z,101818.72
2022-08-25T05:44:20.944Z,101822.28
2022-08-25T05:46:50.249Z,101825.81
2022-08-25T05:49:19.245Z,101829.34
2022-08-25T05:51:47.824Z,101821.28
2022-08-25T05:54:16.309Z,101828.31
2022-08-25T05:56:45.679Z,101843.44
2022-08-25T05:59:14.096Z,101831.81
2022-08-25T06:02:01.145Z,101831.72
2022-08-25T06:04:29.548Z,101831.59
2022-08-25T06:06:57.949Z,101810.91
2022-08-25T06:09:26.559Z,101823.13
2022-08-25T06:11:55.571Z,101827.25
2022-08-25T06:14:25.800Z,101826.25
2022-08-25T06:16:54.532Z,101824.34
2022-08-25T06:19:23.652Z,101825.13
2022-08-25T06:21:57.404Z,101816.03
2022-08-25T06:24:27.045Z,101816.66
2022-08-25T06:26:56.797Z,101817.34
2022-08-25T06:29:27.052Z,101817.78
2022-08-25T06:31:55.529Z,101817.50
2022-08-25T06:34:24.466Z,101809.25
2022-08-25T06:36:53.310Z,101813.63
2022-08-25T06:39:22.397Z,101815.38
2022-08-25T06:41:55.384Z,101819.75
2022-08-25T06:44:27.809Z,101817.00
2022-08-25T06:46:56.270Z,101815.03
2022-08-25T06:49:28.728Z,101819.41
2022-08-25T06:51:58.419Z,101828.19
2022-08-25T06:54:26.702Z,101821.72
2022-08-25T06:56:55.025Z,101815.59
2022-08-25T06:59:23.519Z,101819.50
2022-08-25T07:01:52.336Z,101816.41
2022-08-25T07:04:22.051Z,101814.91
2022-08-25T07:06:50.701Z,101815.75
2022-08-25T07:09:19.543Z,101814.50
2022-08-25T07:11:48.166Z,101808.28
2022-08-25T07:14:18.339Z,101813.06
2022-08-25T07:16:50.265Z,101815.75
2022-08-25T07:19:21.016Z,101811.22
2022-08-25T07:21:52.360Z,101820.16
2022-08-25T07:24:21.895Z,101812.09
2022-08-25T07:26:51.697Z,101818.28
2022-08-25T07:29:32.341Z,101816.50
2022-08-25T07:32:02.418Z,101818.00
2022-08-25T07:34:52.327Z,101819.41
2022-08-25T07:40:33.631Z,101815.41
2022-08-25T07:43:06.224Z,101820.66
2022-08-25T07:45:37.632Z,101817.88
2022-08-25T07:48:14.114Z,101824.03
2022-08-25T07:50:48.405Z,101823.94
2022-08-25T07:53:17.123Z,101820.06
2022-08-25T07:55:47.138Z,101816.28
2022-08-25T07:58:15.916Z,101827.72
2022-08-25T08:00:48.103Z,101821.09
2022-08-25T08:03:35.264Z,101822.72
2022-08-25T08:06:09.800Z,101825.31
2022-08-25T08:08:44.544Z,101824.31
2022-08-25T08:11:17.532Z,101820.59
2022-08-25T08:13:48.431Z,101825.84
2022-08-25T08:16:20.585Z,101817.72
2022-08-25T08:18:50.005Z,101830.84
2022-08-25T08:21:32.320Z,101824.97
2022-08-25T08:24:02.050Z,101824.63
2022-08-25T08:26:55.472Z,101832.34
2022-08-25T08:29:23.239Z,101822.91
2022-08-25T08:31:51.649Z,101831.28
2022-08-25T08:34:24.977Z,101824.25
2022-08-25T08:36:53.795Z,101823.56
2022-08-25T08:39:23.238Z,101819.41
2022-08-25T08:42:29.605Z,101816.13
2022-08-25T08:45:28.811Z,101822.56
2022-08-25T08:48:10.196Z,101815.56
2022-08-25T08:51:10.946Z,101819.47
2022-08-25T08:53:57.299Z,101812.91
2022-08-25T08:56:30.801Z,101818.66
2022-08-25T08:59:05.769Z,101814.94
2022-08-25T09:02:00.484Z,101804.88
2022-08-25T09:04:48.560Z,101801.88
2022-08-25T09:07:27.800Z,101803.03
2022-08-25T09:09:57.987Z,101792.28
2022-08-25T09:12:40.862Z,101790.19
2022-08-25T09:15:20.718Z,101780.00
2022-08-25T09:18:16.168Z,101778.16
2022-08-25T09:20:59.829Z,101781.22
2022-08-25T09:23:33.983Z,101774.06
2022-08-25T09:26:36.157Z,101781.06
2022-08-25T09:29:17.259Z,101777.81
2022-08-25T09:31:48.490Z,101763.63
2022-08-25T09:34:20.726Z,101762.69
2022-08-25T09:36:52.883Z,101763.44
2022-08-25T09:39:23.422Z,101756.19
2022-08-25T09:41:59.167Z,101749.91
2022-08-25T09:44:33.760Z,101752.19
2022-08-25T09:47:08.179Z,101749.53
2022-08-25T09:49:43.247Z,101746.06
2022-08-25T09:52:27.314Z,101735.25
2022-08-25T09:54:58.103Z,101731.56
2022-08-25T09:57:36.357Z,101735.88
2022-08-25T10:00:21.736Z,101722.16
2022-08-25T10:03:05.908Z,101721.44
2022-08-25T10:05:39.390Z,101721.34
2022-08-25T10:08:24.773Z,101719.66
2022-08-25T10:10:57.399Z,101720.31
2022-08-25T10:13:49.890Z,101710.16
2022-08-25T10:16:30.837Z,101715.41
2022-08-25T10:19:21.306Z,101710.72
2022-08-25T10:22:10.869Z,101711.50
2022-08-25T10:24:43.971Z,101707.16
2022-08-25T10:27:38.040Z,101701.34
2022-08-25T10:30:28.029Z,101701.72
2022-08-25T10:33:15.174Z,101694.19
2022-08-25T10:36:23.584Z,101682.97
2022-08-25T10:39:01.599Z,101684.22
2022-08-25T10:41:54.337Z,101683.03
2022-08-25T10:44:57.235Z,101668.38
2022-08-25T10:47:31.821Z,101661.44
2022-08-25T10:50:29.589Z,101655.38
2022-08-25T10:53:21.225Z,101649.91
2022-08-25T10:56:10.289Z,101647.03
2022-08-25T10:58:57.039Z,101641.47
2022-08-25T11:01:46.989Z,101646.66
2022-08-25T11:04:48.597Z,101638.97
2022-08-25T11:07:25.321Z,101642.81
2022-08-25T11:10:00.019Z,101638.81
2022-08-25T11:12:35.878Z,101642.84
2022-08-25T11:15:11.154Z,101642.66
2022-08-25T11:18:02.664Z,101635.94
2022-08-25T11:21:01.992Z,101638.28
2022-08-25T11:23:39.065Z,101637.44
2022-08-25T11:26:17.774Z,101629.66
2022-08-25T11:28:57.579Z,101630.53
2022-08-25T11:31:28.328Z,101623.81
2022-08-25T11:33:58.987Z,101623.19
2022-08-25T11:36:32.544Z,101616.63
2022-08-25T11:39:34.389Z,101625.84
2022-08-25T11:42:43.346Z,101617.47
2022-08-25T11:45:27.019Z,101612.63
2022-08-25T11:48:24.579Z,101611.06
2022-08-25T11:51:00.736Z,101604.09
2022-08-25T11:53:33.514Z,101612.75
2022-08-25T11:56:06.639Z,101606.34
2022-08-25T11:58:50.076Z,101608.09
2022-08-25T12:01:40.561Z,101604.31
2022-08-25T12:04:44.386Z,101596.66
2022-08-25T12:07:26.214Z,101594.03
2022-08-25T12:09:54.574Z,101590.47
2022-08-25T12:12:58.864Z,101588.13
2022-08-25T12:15:42.887Z,101580.88
2022-08-25T12:18:24.498Z,101572.91
2022-08-25T12:20:52.794Z,101580.16
2022-08-25T12:23:46.405Z,101576.59
2022-08-25T12:26:34.520Z,101580.09
2022-08-25T12:29:16.700Z,101588.13
2022-08-25T12:31:57.499Z,101584.91
2022-08-25T12:34:45.183Z,101579.31
2022-08-25T12:37:13.938Z,101572.81
2022-08-25T12:39:58.671Z,101577.97
2022-08-25T12:42:29.967Z,101581.34
2022-08-25T12:45:14.963Z,101574.56
2022-08-25T12:47:47.701Z,101582.06
2022-08-25T12:50:27.521Z,101572.97
2022-08-25T12:53:07.579Z,101564.63
2022-08-25T12:55:37.426Z,101570.81
2022-08-25T12:58:07.530Z,101567.91
2022-08-25T13:01:33.110Z,101566.28
2022-08-25T13:07:04.859Z,101572.06
2022-08-25T13:09:58.867Z,101560.44
2022-08-25T13:13:04.619Z,101555.13
2022-08-25T13:15:42.564Z,101551.25
2022-08-25T13:18:22.617Z,101546.41
2022-08-25T13:21:04.455Z,101542.06
2022-08-25T13:23:37.941Z,101545.63
2022-08-25T13:26:06.735Z,101541.06
2022-08-25T13:28:40.841Z,101535.47
2022-08-25T13:31:22.142Z,101519.69
2022-08-25T13:34:02.383Z,101527.50
2022-08-25T13:36:58.258Z,101527.41
2022-08-25T13:39:52.683Z,101516.75
2022-08-25T13:42:17.542Z,101519.47
2022-08-25T13:44:51.773Z,101514.72
2022-08-25T13:48:02.961Z,101514.22
2022-08-25T13:50:39.772Z,101510.19
2022-08-25T13:53:21.477Z,101501.34
2022-08-25T13:56:02.309Z,101500.88
2022-08-25T13:58:45.027Z,101499.13
2022-08-25T14:01:45.024Z,101497.34
2022-08-25T14:04:26.943Z,101497.94
2022-08-25T14:07:08.473Z,101491.59
2022-08-25T14:09:48.329Z,101489.66
2022-08-25T14:12:39.681Z,101496.78
2022-08-25T14:15:29.647Z,101493.13
2022-08-25T14:18:09.622Z,101482.38
2022-08-25T14:20:50.789Z,101484.66
2022-08-25T14:23:27.054Z,101480.69
2022-08-25T14:25:57.962Z,101474.97
2022-08-25T14:28:29.373Z,101476.78
2022-08-25T14:31:10.071Z,101475.94
2022-08-25T14:33:55.818Z,101475.94
2022-08-25T14:36:25.037Z,101468.88
2022-08-25T14:38:55.057Z,101471.50
2022-08-25T14:41:24.801Z,101466.06
2022-08-25T14:43:53.825Z,101451.59
2022-08-25T14:46:25.097Z,101458.88
2022-08-25T14:48:59.717Z,101454.13
2022-08-25T14:51:29.678Z,101453.94
2022-08-25T14:54:02.767Z,101450.97
2022-08-25T14:56:32.622Z,101448.06
2022-08-25T14:59:01.774Z,101455.03
2022-08-25T15:01:30.346Z,101454.06
2022-08-25T15:04:06.839Z,101449.59
2022-08-25T15:06:38.747Z,101445.03
2022-08-25T15:09:17.199Z,101437.78
2022-08-25T15:11:50.578Z,101430.41
2022-08-25T15:14:29.033Z,101429.50
2022-08-25T15:17:02.690Z,101429.66
2022-08-25T15:19:31.591Z,101435.06
2022-08-25T15:22:00.370Z,101429.75
2022-08-25T15:24:29.437Z,101425.38
2022-08-25T15:27:00.807Z,101421.03
2022-08-25T15:29:31.923Z,101417.56
2022-08-25T15:32:01.753Z,101414.94
2022-08-25T15:34:31.000Z,101406.03
2022-08-25T15:37:08.528Z,101410.69
2022-08-25T15:39:38.869Z,101408.94
2022-08-25T15:42:07.512Z,101414.50
2022-08-25T15:44:35.881Z,101414.59
2022-08-25T15:47:05.799Z,101415.69
2022-08-25T15:49:35.253Z,101403.25
2022-08-25T15:52:04.280Z,101402.59
2022-08-25T15:54:33.242Z,101397.38
2022-08-25T15:57:01.702Z,101392.06
2022-08-25T15:59:30.594Z,101398.63
2022-08-25T16:02:00.434Z,101395.25
2022-08-25T16:04:29.502Z,101397.19
2022-08-25T16:06:58.330Z,101400.97
2022-08-25T16:09:27.118Z,101395.75
2022-08-25T16:11:57.068Z,101391.38
2022-08-25T16:14:27.584Z,101397.03
2022-08-25T16:16:58.360Z,101394.50
2022-08-25T16:19:31.544Z,101391.13
2022-08-25T16:22:00.685Z,101387.63
2022-08-25T16:24:29.118Z,101388.72
2022-08-25T16:27:10.895Z,101394.25
2022-08-25T16:29:44.045Z,101389.22
2022-08-25T16:32:14.244Z,101385.75
2022-08-25T16:34:42.846Z,101377.03
2022-08-25T16:37:14.322Z,101370.06
2022-08-25T16:39:46.118Z,101373.94
2022-08-25T16:42:14.757Z,101371.53
2022-08-25T16:44:43.837Z,101368.09
2022-08-25T16:47:14.454Z,101366.56
2022-08-25T16:49:46.880Z,101368.59
2022-08-25T16:52:34.365Z,101373.25
2022-08-25T16:55:16.386Z,101365.31
2022-08-25T16:57:48.213Z,101367.34
2022-08-25T17:00:24.078Z,101364.91
2022-08-25T17:02:59.459Z,101363.38
2022-08-25T17:05:29.365Z,101362.69
2022-08-25T17:08:30.828Z,101357.59
2022-08-25T17:11:05.877Z,101360.56
2022-08-25T17:13:36.645Z,101359.78
2022-08-25T17:16:07.463Z,101361.91
2022-08-25T17:18:36.238Z,101360.34
2022-08-25T17:21:11.091Z,101357.94
2022-08-25T17:23:44.998Z,101361.81
2022-08-25T17:26:17.201Z,101363.63
2022-08-25T17:28:46.246Z,101360.16
2022-08-25T17:31:15.762Z,101368.44
2022-08-25T17:33:45.627Z,101365.06
2022-08-25T17:36:17.090Z,101368.03
2022-08-25T17:38:46.333Z,101366.47
2022-08-25T17:41:15.020Z,101367.56
2022-08-25T17:43:46.379Z,101369.56
2022-08-25T17:46:15.325Z,101359.13
2022-08-25T17:48:44.079Z,101367.59
2022-08-25T17:51:13.052Z,101363.41
2022-08-25T17:53:44.501Z,101370.06
2022-08-25T17:56:18.551Z,101366.88
2022-08-25T17:58:47.359Z,101374.38
2022-08-25T18:01:24.944Z,101370.13
2022-08-25T18:03:54.444Z,101372.13
2022-08-25T18:06:26.267Z,101375.09
2022-08-25T18:08:59.928Z,101368.97
2022-08-25T18:11:30.143Z,101372.00
2022-08-25T18:13:59.562Z,101381.34
2022-08-25T18:16:30.350Z,101370.91
2022-08-25T18:18:58.938Z,101382.06
2022-08-25T18:21:30.562Z,101386.00
2022-08-25T18:23:59.387Z,101381.81
2022-08-25T18:26:28.289Z,101374.06
2022-08-25T18:28:56.679Z,101384.16
2022-08-25T18:31:25.542Z,101381.91
2022-08-25T18:33:54.098Z,101385.88
2022-08-25T18:36:22.572Z,101386.38
2022-08-25T18:39:10.121Z,101388.63
2022-08-25T18:41:41.328Z,101389.28
2022-08-25T18:44:11.013Z,101387.06
2022-08-25T18:46:40.207Z,101389.47
2022-08-25T18:49:08.698Z,101389.19
2022-08-25T18:51:37.699Z,101394.94
2022-08-25T18:54:06.277Z,101397.25
2022-08-25T18:56:35.014Z,101393.22
2022-08-25T18:59:04.753Z,101395.50
2022-08-25T19:01:36.587Z,101400.34
2022-08-25T19:04:05.153Z,101398.97
2022-08-25T19:06:33.339Z,101393.97
2022-08-25T19:09:02.122Z,101397.00
2022-08-25T19:11:31.248Z,101399.09
2022-08-25T19:14:00.998Z,101395.75
2022-08-25T19:16:38.727Z,101398.72
2022-08-25T19:19:09.242Z,101394.50
2022-08-25T19:21:38.658Z,101401.00
2022-08-25T19:24:08.976Z,101400.94
2022-08-25T19:26:37.608Z,101396.41
2022-08-25T19:29:10.342Z,101403.69
2022-08-25T19:31:39.741Z,101401.06
2022-08-25T19:34:13.786Z,101394.09
2022-08-25T19:36:43.901Z,101393.47
2022-08-25T19:39:14.268Z,101404.44
2022-08-25T19:41:46.494Z,101396.66
2022-08-25T19:44:15.109Z,101397.75
2022-08-25T19:46:45.306Z,101405.13
2022-08-25T19:49:18.259Z,101398.94
2022-08-25T19:51:51.553Z,101394.63
2022-08-25T19:54:25.103Z,101401.97
2022-08-25T19:56:55.612Z,101395.78
2022-08-25T19:59:40.479Z,101391.41
2022-08-25T20:02:16.827Z,101394.44
2022-08-25T20:04:51.145Z,101396.44
2022-08-25T20:07:22.976Z,101393.13
2022-08-25T20:09:53.631Z,101389.81
2022-08-25T20:12:24.248Z,101393.59
2022-08-25T20:14:56.110Z,101387.53
2022-08-25T20:17:28.343Z,101387.75
2022-08-25T20:20:04.851Z,101386.22
2022-08-25T20:22:33.859Z,101390.88
2022-08-25T20:25:13.139Z,101390.19
2022-08-25T20:27:54.708Z,101395.78
2022-08-25T20:30:27.537Z,101388.81
2022-08-25T20:32:57.350Z,101388.06
2022-08-25T20:35:27.797Z,101392.69
2022-08-25T20:37:58.294Z,101392.88
2022-08-25T20:40:27.993Z,101394.94
2022-08-25T20:43:03.094Z,101393.09
2022-08-25T20:45:32.022Z,101390.41
2022-08-25T20:48:00.444Z,101391.41
2022-08-25T20:50:28.819Z,101397.75
2022-08-25T20:52:58.744Z,101400.59
2022-08-25T20:55:28.888Z,101398.84
2022-08-25T20:57:57.294Z,101400.72
2022-08-25T21:00:26.075Z,101397.34
2022-08-25T21:02:57.239Z,101396.69
2022-08-25T21:05:25.702Z,101400.38
2022-08-25T21:07:54.810Z,101402.38
2022-08-25T21:10:23.090Z,101402.53
2022-08-25T21:12:53.464Z,101402.69
2022-08-25T21:15:22.295Z,101398.38
2022-08-25T21:17:54.462Z,101406.59
2022-08-25T21:20:24.803Z,101399.56
2022-08-25T21:22:54.918Z,101400.53
2022-08-25T21:25:23.779Z,101403.22
2022-08-25T21:27:52.514Z,101401.41
2022-08-25T21:30:21.256Z,101405.91
2022-08-25T21:32:53.031Z,101408.59
2022-08-25T21:35:27.133Z,101403.22
2022-08-25T21:37:55.491Z,101404.09
2022-08-25T21:40:24.065Z,101405.75
2022-08-25T21:42:52.726Z,101406.66
2022-08-25T21:45:21.846Z,101406.59
2022-08-25T21:47:52.001Z,101406.59
2022-08-25T21:50:22.364Z,101405.72
2022-08-25T21:52:54.336Z,101407.59
2022-08-25T21:55:24.050Z,101395.97
2022-08-25T21:57:53.123Z,101410.34
2022-08-25T22:00:22.747Z,101403.28
2022-08-25T22:02:51.599Z,101408.72
2022-08-25T22:05:20.029Z,101410.47
2022-08-25T22:07:48.621Z,101407.78
2022-08-25T22:10:18.217Z,101402.47
2022-08-25T22:12:48.213Z,101404.28
2022-08-25T22:15:18.022Z,101391.84
2022-08-25T22:17:48.183Z,101394.59
2022-08-25T22:20:16.999Z,101395.59
2022-08-25T22:22:45.552Z,101400.97
2022-08-25T22:25:14.489Z,101383.09
2022-08-25T22:27:43.119Z,101392.09
2022-08-25T22:30:13.858Z,101395.78
2022-08-25T22:32:45.732Z,101393.09
2022-08-25T22:35:14.351Z,101394.09
2022-08-25T22:37:43.357Z,101395.91
2022-08-25T22:40:12.695Z,101389.78
2022-08-25T22:42:46.083Z,101391.59
2022-08-25T22:45:16.915Z,101387.22
2022-08-25T22:47:48.792Z,101385.53
2022-08-25T22:50:17.497Z,101399.06
2022-08-25T22:52:47.719Z,101395.53
2022-08-25T22:55:16.546Z,101401.94
2022-08-25T22:57:45.188Z,101394.88
2022-08-25T23:00:14.877Z,101401.16
2022-08-25T23:02:44.801Z,101408.56
2022-08-25T23:05:14.955Z,101414.03
2022-08-25T23:07:43.543Z,101415.91
2022-08-25T23:10:12.489Z,101426.81
2022-08-25T23:12:42.655Z,101415.47
2022-08-25T23:15:12.970Z,101421.88
2022-08-25T23:17:42.663Z,101428.38
2022-08-25T23:20:29.642Z,101418.66
2022-08-25T23:22:59.317Z,101435.91
2022-08-25T23:25:27.657Z,101431.63
2022-08-25T23:27:56.486Z,101429.06
2022-08-25T23:30:27.562Z,101433.66
2022-08-25T23:32:56.068Z,101432.03
2022-08-25T23:35:24.642Z,101432.94
2022-08-25T23:37:52.997Z,101429.50
2022-08-25T23:40:21.709Z,101423.34
2022-08-25T23:42:51.333Z,101425.31
2022-08-25T23:45:19.848Z,101422.72
2022-08-25T23:47:49.652Z,101418.47
2022-08-25T23:50:18.537Z,101424.88
2022-08-25T23:52:47.688Z,101418.78
2022-08-25T23:55:16.050Z,101415.34
2022-08-25T23:57:45.059Z,101411.88
